createdAt,value
2019-04-28T00:00:17.443Z,63.70
2019-04-28T00:02:47.636Z,63.70
2019-04-28T00:05:17.717Z,64.00
2019-04-28T00:07:50.488Z,63.30
2019-04-28T00:10:20.997Z,63.10
2019-04-28T00:12:51.131Z,64.20
2019-04-28T00:15:21.326Z,64.30
2019-04-28T00:17:51.620Z,64.40
2019-04-28T00:20:40.871Z,63.90
2019-04-28T00:23:15.574Z,63.30
2019-04-28T00:25:59.059Z,63.50
2019-04-28T00:28:31.146Z,63.60
2019-04-28T00:31:02.469Z,63.10
2019-04-28T00:33:32.687Z,62.30
2019-04-28T00:36:02.721Z,62.00
2019-04-28T00:38:32.728Z,62.10
2019-04-28T00:41:06.138Z,61.50
2019-04-28T00:43:36.217Z,60.90
2019-04-28T00:46:08.158Z,61.00
2019-04-28T00:48:40.967Z,62.50
2019-04-28T00:51:11.591Z,63.50
2019-04-28T00:53:41.666Z,65.90
2019-04-28T00:56:12.104Z,64.70
2019-04-28T00:58:42.072Z,64.10
2019-04-28T01:01:21.249Z,64.50
2019-04-28T01:03:52.214Z,65.90
2019-04-28T01:06:22.359Z,65.60
2019-04-28T01:08:52.322Z,65.10
2019-04-28T01:11:22.308Z,64.90
2019-04-28T01:13:52.205Z,64.50
2019-04-28T01:16:40.069Z,63.80
2019-04-28T01:19:17.495Z,63.80
2019-04-28T01:21:57.951Z,63.70
2019-04-28T01:24:29.423Z,65.10
2019-04-28T01:27:00.506Z,65.00
2019-04-28T01:29:30.613Z,66.50
2019-04-28T01:32:07.939Z,67.30
2019-04-28T01:34:39.821Z,67.70
2019-04-28T01:37:09.804Z,67.30
2019-04-28T01:39:41.237Z,67.60
2019-04-28T01:42:11.218Z,68.80
2019-04-28T01:44:41.151Z,68.60
2019-04-28T01:47:11.061Z,68.60
2019-04-28T01:49:40.996Z,66.80
2019-04-28T01:52:10.961Z,66.90
2019-04-28T01:54:40.898Z,67.50
2019-04-28T01:57:10.907Z,68.60
2019-04-28T01:59:40.805Z,70.40
2019-04-28T02:02:10.811Z,69.60
2019-04-28T02:04:40.940Z,69.10
2019-04-28T02:07:11.175Z,70.20
2019-04-28T02:09:41.061Z,71.10
2019-04-28T02:12:11.038Z,70.60
2019-04-28T02:14:41.058Z,70.20
2019-04-28T02:17:11.125Z,70.70
2019-04-28T02:19:41.224Z,71.70
2019-04-28T02:22:25.347Z,73.10
2019-04-28T02:24:55.325Z,73.00
2019-04-28T02:27:25.409Z,75.20
2019-04-28T02:29:55.378Z,76.70
2019-04-28T02:32:25.385Z,77.80
2019-04-28T02:34:55.349Z,78.50
2019-04-28T02:37:25.371Z,79.20
2019-04-28T02:39:55.417Z,79.90
2019-04-28T02:42:25.491Z,80.50
2019-04-28T02:44:55.467Z,80.50
2019-04-28T02:47:25.403Z,80.70
2019-04-28T02:49:56.977Z,80.70
2019-04-28T02:52:31.063Z,81.10
2019-04-28T02:55:03.190Z,82.60
2019-04-28T02:57:32.116Z,84.30
2019-04-28T03:00:02.201Z,84.00
2019-04-28T03:02:33.819Z,83.60
2019-04-28T03:05:05.291Z,83.80
2019-04-28T03:07:35.318Z,83.30
2019-04-28T03:10:05.969Z,82.90
2019-04-28T03:12:35.957Z,81.50
2019-04-28T03:15:07.233Z,80.60
2019-04-28T03:17:37.224Z,80.00
2019-04-28T03:20:07.304Z,80.60
2019-04-28T03:22:40.686Z,81.70
2019-04-28T03:25:11.622Z,83.50
2019-04-28T03:28:01.159Z,85.00
2019-04-28T03:30:53.293Z,85.30
2019-04-28T03:33:25.645Z,84.60
2019-04-28T03:35:54.161Z,84.50
2019-04-28T03:38:24.301Z,84.10
2019-04-28T03:40:54.315Z,84.70
2019-04-28T03:43:24.310Z,85.50
2019-04-28T03:46:02.691Z,84.40
2019-04-28T03:48:30.906Z,83.70
2019-04-28T03:51:02.183Z,82.70
2019-04-28T03:53:32.134Z,81.70
2019-04-28T03:56:02.127Z,81.20
2019-04-28T03:58:33.150Z,82.10
2019-04-28T04:01:04.262Z,82.20
2019-04-28T04:03:34.205Z,82.70
2019-04-28T04:06:04.199Z,81.90
2019-04-28T04:08:34.213Z,81.40
2019-04-28T04:11:22.026Z,80.90
2019-04-28T04:13:53.602Z,80.60
2019-04-28T04:16:30.591Z,80.80
2019-04-28T04:19:07.328Z,81.40
2019-04-28T04:21:37.232Z,80.20
2019-04-28T04:24:07.246Z,79.50
2019-04-28T04:26:37.249Z,80.50
2019-04-28T04:29:07.234Z,82.40
2019-04-28T04:31:37.261Z,84.00
2019-04-28T04:34:07.308Z,84.40
2019-04-28T04:36:37.818Z,83.80
2019-04-28T04:39:10.564Z,82.90
2019-04-28T04:41:40.848Z,83.40
2019-04-28T04:44:11.309Z,84.80
2019-04-28T04:46:41.636Z,84.30
2019-04-28T04:49:11.683Z,83.80
2019-04-28T04:51:43.887Z,83.60
2019-04-28T04:54:13.159Z,83.40
2019-04-28T04:56:43.250Z,82.70
2019-04-28T04:59:13.255Z,83.00
2019-04-28T05:01:44.873Z,83.20
2019-04-28T05:04:32.582Z,83.40
2019-04-28T05:07:02.537Z,82.20
2019-04-28T05:09:32.578Z,82.70
2019-04-28T05:12:02.543Z,82.50
2019-04-28T05:14:32.479Z,81.30
2019-04-28T05:17:02.449Z,81.10
2019-04-28T05:19:32.440Z,80.80
2019-04-28T05:22:02.473Z,81.00
2019-04-28T05:24:51.170Z,80.80
2019-04-28T05:27:24.023Z,80.00
2019-04-28T05:29:52.039Z,79.30
2019-04-28T05:32:21.982Z,79.70
2019-04-28T05:34:52.947Z,79.40
2019-04-28T05:37:24.011Z,79.70
2019-04-28T05:39:54.071Z,79.80
2019-04-28T05:42:24.149Z,79.90
2019-04-28T05:44:54.146Z,79.60
2019-04-28T05:47:24.041Z,78.80
2019-04-28T05:49:55.609Z,78.90
2019-04-28T05:52:30.072Z,78.80
2019-04-28T05:55:05.707Z,78.20
2019-04-28T05:57:37.269Z,78.40
2019-04-28T06:00:23.934Z,78.00
2019-04-28T06:03:04.332Z,75.80
2019-04-28T06:05:34.261Z,72.70
2019-04-28T06:08:10.022Z,69.60
2019-04-28T06:10:40.289Z,64.80
2019-04-28T06:13:10.298Z,59.50
2019-04-28T06:15:40.277Z,57.50
2019-04-28T06:18:10.530Z,57.90
2019-04-28T06:20:40.789Z,57.90
2019-04-28T06:23:10.809Z,57.70
2019-04-28T06:25:40.843Z,58.60
2019-04-28T06:28:10.824Z,58.20
2019-04-28T06:30:40.829Z,58.50
2019-04-28T06:33:11.881Z,58.20
2019-04-28T06:35:41.813Z,58.10
2019-04-28T06:38:11.709Z,58.80
2019-04-28T06:40:41.637Z,57.80
2019-04-28T06:43:11.465Z,57.20
2019-04-28T06:45:46.151Z,56.40
2019-04-28T06:48:16.190Z,55.50
2019-04-28T06:50:46.197Z,55.30
2019-04-28T06:53:16.104Z,54.80
2019-04-28T06:55:46.123Z,54.20
2019-04-28T06:58:16.098Z,54.10
2019-04-28T07:00:47.124Z,53.50
2019-04-28T07:03:23.332Z,53.90
2019-04-28T07:05:48.863Z,53.30
2019-04-28T07:08:18.879Z,53.70
2019-04-28T07:10:48.911Z,54.00
2019-04-28T07:13:20.657Z,54.90
2019-04-28T07:15:50.446Z,55.50
2019-04-28T07:18:20.530Z,54.70
2019-04-28T07:20:54.921Z,55.40
2019-04-28T07:23:24.849Z,55.10
2019-04-28T07:25:54.818Z,55.30
2019-04-28T07:28:24.823Z,55.00
2019-04-28T07:30:54.939Z,54.40
2019-04-28T07:33:35.529Z,53.80
2019-04-28T07:35:57.981Z,53.40
2019-04-28T07:38:27.996Z,53.00
2019-04-28T07:40:57.890Z,52.00
2019-04-28T07:43:27.969Z,52.00
2019-04-28T07:45:57.876Z,52.20
2019-04-28T07:48:27.957Z,51.10
2019-04-28T07:50:57.932Z,50.90
2019-04-28T07:53:35.221Z,51.80
2019-04-28T07:56:05.294Z,50.70
2019-04-28T07:58:35.222Z,50.40
2019-04-28T08:01:07.852Z,51.00
2019-04-28T08:03:49.381Z,50.60
2019-04-28T08:06:12.456Z,50.00
2019-04-28T08:08:42.446Z,50.60
2019-04-28T08:11:12.533Z,50.50
2019-04-28T08:13:42.505Z,50.80
2019-04-28T08:16:12.442Z,50.50
2019-04-28T08:18:42.578Z,50.20
2019-04-28T08:21:12.729Z,49.80
2019-04-28T08:23:47.473Z,50.40
2019-04-28T08:26:14.478Z,50.20
2019-04-28T08:28:44.560Z,51.10
2019-04-28T08:31:16.199Z,49.70
2019-04-28T08:34:01.640Z,49.30
2019-04-28T08:36:22.127Z,49.90
2019-04-28T08:38:52.163Z,50.50
2019-04-28T08:41:22.204Z,49.50
2019-04-28T08:43:52.209Z,49.50
2019-04-28T08:46:22.177Z,50.10
2019-04-28T08:48:52.255Z,49.40
2019-04-28T08:51:23.235Z,49.70
2019-04-28T08:53:54.171Z,49.50
2019-04-28T08:56:24.189Z,48.80
2019-04-28T08:58:54.114Z,49.20
2019-04-28T09:01:24.022Z,47.90
2019-04-28T09:03:54.026Z,48.00
2019-04-28T09:06:23.921Z,49.30
2019-04-28T09:08:53.857Z,48.60
2019-04-28T09:11:23.766Z,48.50
2019-04-28T09:13:53.713Z,48.80
2019-04-28T09:16:23.630Z,50.10
2019-04-28T09:18:53.497Z,48.30
2019-04-28T09:21:23.425Z,49.70
2019-04-28T09:23:53.337Z,50.00
2019-04-28T09:26:23.272Z,51.40
2019-04-28T09:28:53.200Z,51.50
2019-04-28T09:31:24.163Z,50.90
2019-04-28T09:33:54.061Z,51.50
2019-04-28T09:36:24.070Z,50.80
2019-04-28T09:38:54.278Z,50.40
2019-04-28T09:41:28.209Z,52.00
2019-04-28T09:43:59.789Z,52.00
2019-04-28T09:46:31.466Z,53.30
2019-04-28T09:49:01.490Z,56.40
2019-04-28T09:51:31.540Z,55.00
2019-04-28T09:54:01.547Z,55.40
2019-04-28T09:56:31.624Z,56.60
2019-04-28T09:59:01.629Z,56.10
2019-04-28T10:01:31.525Z,55.80
2019-04-28T10:04:01.465Z,55.30
2019-04-28T10:06:31.571Z,55.40
2019-04-28T10:09:02.792Z,57.10
2019-04-28T10:11:34.395Z,56.90
2019-04-28T10:14:04.529Z,57.50
2019-04-28T10:16:34.624Z,57.20
2019-04-28T10:19:04.613Z,54.50
2019-04-28T10:21:34.510Z,55.30
2019-04-28T10:24:04.577Z,52.90
2019-04-28T10:26:34.524Z,49.10
2019-04-28T10:29:05.526Z,50.20
2019-04-28T10:31:36.353Z,51.50
2019-04-28T10:34:06.401Z,51.50
2019-04-28T10:36:36.278Z,55.90
2019-04-28T10:39:18.556Z,55.70
2019-04-28T10:41:48.574Z,51.20
2019-04-28T10:44:18.683Z,54.60
2019-04-28T10:46:48.826Z,58.10
2019-04-28T10:49:19.931Z,57.10
2019-04-28T10:51:59.214Z,55.60
2019-04-28T10:54:25.006Z,54.70
2019-04-28T10:57:09.660Z,52.30
2019-04-28T10:59:44.989Z,52.30
2019-04-28T11:02:25.151Z,52.50
2019-04-28T11:05:08.050Z,51.70
2019-04-28T11:07:35.590Z,52.80
2019-04-28T11:10:16.284Z,54.50
2019-04-28T11:12:58.747Z,54.00
2019-04-28T11:15:35.736Z,53.50
2019-04-28T11:18:07.593Z,51.70
2019-04-28T11:20:37.540Z,52.90
2019-04-28T11:23:07.366Z,52.20
2019-04-28T11:25:37.304Z,52.10
2019-04-28T11:28:07.391Z,51.00
2019-04-28T11:30:37.473Z,51.40
2019-04-28T11:33:09.150Z,51.30
2019-04-28T11:35:40.789Z,49.20
2019-04-28T11:38:10.768Z,49.20
2019-04-28T11:40:40.765Z,50.10
2019-04-28T11:43:10.737Z,51.50
2019-04-28T11:45:40.813Z,51.20
2019-04-28T11:48:10.709Z,48.80
2019-04-28T11:50:40.720Z,50.30
2019-04-28T11:53:10.720Z,49.30
2019-04-28T11:55:40.689Z,52.90
2019-04-28T11:58:10.606Z,50.40
2019-04-28T12:00:40.642Z,49.90
2019-04-28T12:03:10.659Z,50.80
2019-04-28T12:05:42.375Z,52.40
2019-04-28T12:08:12.286Z,51.60
2019-04-28T12:10:55.927Z,50.10
2019-04-28T12:13:31.797Z,50.40
2019-04-28T12:16:03.438Z,51.90
2019-04-28T12:18:46.552Z,52.00
2019-04-28T12:21:16.565Z,49.60
2019-04-28T12:23:47.524Z,50.30
2019-04-28T12:26:17.504Z,51.30
2019-04-28T12:28:47.526Z,51.50
2019-04-28T12:31:17.564Z,50.80
2019-04-28T12:33:47.498Z,50.50
2019-04-28T12:36:17.470Z,50.70
2019-04-28T12:38:47.481Z,50.00
2019-04-28T12:41:17.491Z,50.60
2019-04-28T12:43:47.605Z,52.80
2019-04-28T12:46:17.638Z,52.30
2019-04-28T12:48:49.299Z,53.40
2019-04-28T12:51:19.385Z,53.30
2019-04-28T12:53:50.935Z,53.80
2019-04-28T12:56:21.077Z,53.40
2019-04-28T12:58:52.614Z,54.40
2019-04-28T13:01:24.114Z,54.20
2019-04-28T13:04:01.697Z,53.40
2019-04-28T13:06:31.625Z,53.80
2019-04-28T13:09:01.595Z,55.20
2019-04-28T13:11:33.205Z,55.70
2019-04-28T13:14:03.254Z,54.70
2019-04-28T13:16:33.177Z,54.50
2019-04-28T13:19:03.144Z,55.10
2019-04-28T13:21:33.086Z,54.20
2019-04-28T13:24:04.033Z,55.90
2019-04-28T13:26:33.894Z,55.50
2019-04-28T13:29:03.865Z,56.00
2019-04-28T13:31:34.766Z,55.50
2019-04-28T13:34:06.375Z,56.10
2019-04-28T13:36:36.311Z,55.70
2019-04-28T13:39:17.709Z,55.80
2019-04-28T13:41:50.585Z,56.40
2019-04-28T13:44:38.210Z,55.60
2019-04-28T13:47:08.362Z,56.00
2019-04-28T13:49:55.370Z,53.40
2019-04-28T13:52:25.299Z,53.70
2019-04-28T13:54:56.933Z,55.80
2019-04-28T13:57:29.647Z,54.50
2019-04-28T14:00:03.936Z,55.10
2019-04-28T14:02:44.133Z,53.80
2019-04-28T14:05:18.703Z,54.80
2019-04-28T14:07:48.743Z,53.90
2019-04-28T14:10:18.729Z,54.60
2019-04-28T14:12:48.651Z,55.30
2019-04-28T14:15:18.713Z,56.00
2019-04-28T14:17:48.819Z,55.40
2019-04-28T14:20:18.874Z,55.10
2019-04-28T14:22:49.526Z,54.80
2019-04-28T14:25:19.452Z,54.40
2019-04-28T14:27:49.437Z,54.20
2019-04-28T14:30:19.553Z,57.00
2019-04-28T14:32:49.438Z,57.30
2019-04-28T14:35:20.389Z,57.70
2019-04-28T14:37:50.472Z,56.80
2019-04-28T14:40:20.545Z,55.80
2019-04-28T14:42:50.549Z,55.50
2019-04-28T14:45:21.323Z,56.00
2019-04-28T14:47:51.199Z,57.00
2019-04-28T14:50:21.168Z,56.60
2019-04-28T14:52:51.069Z,55.00
2019-04-28T14:55:21.143Z,55.20
2019-04-28T14:57:51.109Z,56.60
2019-04-28T15:00:22.787Z,59.00
2019-04-28T15:03:03.067Z,58.80
2019-04-28T15:05:46.494Z,56.80
2019-04-28T15:08:24.013Z,56.00
2019-04-28T15:10:55.613Z,56.80
2019-04-28T15:13:26.366Z,57.10
2019-04-28T15:15:56.361Z,56.60
2019-04-28T15:18:26.329Z,58.20
2019-04-28T15:20:56.414Z,57.60
2019-04-28T15:23:26.370Z,56.80
2019-04-28T15:25:56.378Z,57.10
2019-04-28T15:28:26.346Z,58.60
2019-04-28T15:30:56.384Z,59.20
2019-04-28T15:33:26.443Z,57.70
2019-04-28T15:35:56.522Z,59.20
2019-04-28T15:38:29.277Z,58.60
2019-04-28T15:40:59.238Z,58.80
2019-04-28T15:43:29.269Z,59.60
2019-04-28T15:45:59.270Z,59.10
2019-04-28T15:48:29.337Z,59.90
2019-04-28T15:50:59.332Z,59.40
2019-04-28T15:53:30.148Z,58.30
2019-04-28T15:56:01.871Z,58.70
2019-04-28T15:58:39.189Z,58.80
2019-04-28T16:01:09.435Z,56.20
2019-04-28T16:03:39.293Z,59.40
2019-04-28T16:06:09.302Z,58.90
2019-04-28T16:08:39.898Z,60.10
2019-04-28T16:11:09.860Z,59.30
2019-04-28T16:13:41.992Z,60.40
2019-04-28T16:16:11.957Z,59.40
2019-04-28T16:18:41.956Z,59.30
2019-04-28T16:21:11.955Z,60.20
2019-04-28T16:23:42.528Z,61.00
2019-04-28T16:26:13.017Z,60.80
2019-04-28T16:28:42.982Z,60.50
2019-04-28T16:31:12.998Z,60.40
2019-04-28T16:33:44.901Z,60.70
2019-04-28T16:36:16.146Z,61.10
2019-04-28T16:38:46.043Z,61.30
2019-04-28T16:41:17.622Z,60.70
2019-04-28T16:43:49.149Z,61.00
2019-04-28T16:46:19.252Z,60.90
2019-04-28T16:48:49.224Z,60.30
2019-04-28T16:51:20.509Z,59.70
2019-04-28T16:53:50.429Z,59.40
2019-04-28T16:56:27.881Z,59.00
2019-04-28T16:59:15.596Z,58.50
2019-04-28T17:01:50.097Z,57.90
2019-04-28T17:04:20.167Z,57.40
2019-04-28T17:06:50.206Z,57.10
2019-04-28T17:09:21.374Z,56.90
2019-04-28T17:11:51.374Z,57.10
2019-04-28T17:14:21.301Z,56.50
2019-04-28T17:16:51.217Z,56.30
2019-04-28T17:19:21.126Z,56.60
2019-04-28T17:21:51.522Z,56.90
2019-04-28T17:24:23.061Z,56.80
2019-04-28T17:26:53.062Z,57.00
2019-04-28T17:29:26.805Z,57.70
2019-04-28T17:31:56.740Z,56.60
2019-04-28T17:34:27.681Z,56.20
2019-04-28T17:36:57.686Z,56.40
2019-04-28T17:39:28.934Z,56.70
2019-04-28T17:41:58.873Z,57.00
2019-04-28T17:44:28.845Z,56.60
2019-04-28T17:46:58.855Z,56.60
2019-04-28T17:49:30.465Z,57.00
2019-04-28T17:52:00.395Z,57.40
2019-04-28T17:54:30.403Z,57.90
2019-04-28T17:57:00.337Z,58.20
2019-04-28T17:59:30.305Z,57.80
2019-04-28T18:02:07.699Z,58.20
2019-04-28T18:04:41.993Z,58.40
2019-04-28T18:07:19.459Z,58.40
2019-04-28T18:09:49.433Z,59.60
2019-04-28T18:12:19.496Z,59.90
2019-04-28T18:14:51.220Z,60.90
2019-04-28T18:17:29.757Z,62.30
2019-04-28T18:20:02.538Z,63.10
2019-04-28T18:22:32.614Z,61.40
2019-04-28T18:25:02.655Z,62.00
2019-04-28T18:27:32.581Z,61.50
2019-04-28T18:30:02.698Z,60.00
2019-04-28T18:32:41.546Z,60.10
2019-04-28T18:35:13.011Z,60.20
2019-04-28T18:38:00.699Z,60.50
2019-04-28T18:40:32.542Z,61.60
2019-04-28T18:43:19.266Z,60.90
2019-04-28T18:45:49.582Z,60.50
2019-04-28T18:48:19.855Z,60.70
2019-04-28T18:50:53.516Z,60.60
2019-04-28T18:53:23.617Z,60.10
2019-04-28T18:55:53.569Z,61.60
2019-04-28T18:58:23.653Z,62.30
2019-04-28T19:00:55.233Z,62.70
2019-04-28T19:03:25.103Z,62.70
2019-04-28T19:05:55.187Z,62.40
2019-04-28T19:08:48.943Z,61.90
2019-04-28T19:11:18.316Z,61.80
2019-04-28T19:13:55.859Z,61.90
2019-04-28T19:16:31.530Z,61.30
2019-04-28T19:19:03.171Z,62.40
2019-04-28T19:21:33.214Z,62.70
2019-04-28T19:24:03.219Z,63.90
2019-04-28T19:26:33.277Z,63.20
2019-04-28T19:29:03.323Z,61.90
2019-04-28T19:31:33.475Z,60.80
2019-04-28T19:34:03.553Z,60.40
2019-04-28T19:36:34.176Z,62.60
2019-04-28T19:39:06.198Z,61.80
2019-04-28T19:41:37.961Z,61.40
2019-04-28T19:44:07.973Z,60.80
2019-04-28T19:46:37.998Z,59.70
2019-04-28T19:49:08.106Z,60.60
2019-04-28T19:51:38.182Z,60.60
2019-04-28T19:54:08.942Z,61.60
2019-04-28T19:56:47.739Z,62.70
2019-04-28T19:59:35.422Z,62.80
2019-04-28T20:02:05.503Z,63.20
2019-04-28T20:04:35.570Z,63.30
2019-04-28T20:07:05.470Z,62.80
2019-04-28T20:09:35.475Z,62.30
2019-04-28T20:12:05.616Z,63.20
2019-04-28T20:14:35.665Z,62.90
2019-04-28T20:17:05.729Z,61.70
2019-04-28T20:19:35.701Z,61.90
2019-04-28T20:22:05.771Z,61.20
2019-04-28T20:24:46.633Z,63.20
2019-04-28T20:27:08.077Z,63.30
2019-04-28T20:29:38.115Z,63.30
2019-04-28T20:32:08.207Z,64.00
2019-04-28T20:34:38.557Z,61.00
2019-04-28T20:37:11.286Z,63.00
2019-04-28T20:39:43.117Z,62.60
2019-04-28T20:42:30.734Z,60.50
2019-04-28T20:45:00.631Z,55.20
2019-04-28T20:47:30.606Z,53.40
2019-04-28T20:50:00.565Z,50.40
2019-04-28T20:52:30.714Z,49.80
2019-04-28T20:55:00.543Z,49.40
2019-04-28T20:57:31.910Z,49.40
2019-04-28T21:00:01.945Z,49.80
2019-04-28T21:02:33.616Z,49.20
2019-04-28T21:05:04.051Z,49.60
2019-04-28T21:07:34.050Z,49.80
2019-04-28T21:10:05.528Z,50.30
2019-04-28T21:12:35.598Z,50.20
2019-04-28T21:15:06.304Z,50.60
2019-04-28T21:17:36.422Z,51.00
2019-04-28T21:20:07.195Z,51.10
2019-04-28T21:22:37.201Z,51.10
2019-04-28T21:25:07.310Z,51.50
2019-04-28T21:27:37.266Z,52.00
2019-04-28T21:30:08.061Z,52.50
2019-04-28T21:32:38.051Z,53.80
2019-04-28T21:35:08.117Z,55.00
2019-04-28T21:37:38.129Z,55.50
2019-04-28T21:40:09.961Z,56.60
2019-04-28T21:42:53.461Z,57.10
2019-04-28T21:45:41.914Z,57.70
2019-04-28T21:48:13.450Z,57.50
2019-04-28T21:50:43.389Z,63.10
2019-04-28T21:53:13.382Z,63.40
2019-04-28T21:55:43.209Z,67.50
2019-04-28T21:58:13.082Z,67.80
2019-04-28T22:00:50.709Z,71.00
2019-04-28T22:03:30.910Z,66.50
2019-04-28T22:06:00.878Z,63.70
2019-04-28T22:08:30.848Z,67.10
2019-04-28T22:11:00.845Z,60.00
2019-04-28T22:13:30.846Z,64.60
2019-04-28T22:16:00.813Z,74.00
2019-04-28T22:18:30.693Z,71.90
2019-04-28T22:21:00.653Z,71.90
2019-04-28T22:23:35.169Z,70.70
2019-04-28T22:26:05.362Z,72.20
2019-04-28T22:28:35.257Z,73.20
2019-04-28T22:31:05.244Z,73.30
2019-04-28T22:33:35.158Z,71.60
2019-04-28T22:36:05.124Z,72.50
2019-04-28T22:38:35.129Z,75.30
2019-04-28T22:41:05.163Z,72.50
2019-04-28T22:43:35.163Z,71.20
2019-04-28T22:46:05.053Z,66.40
2019-04-28T22:48:34.989Z,68.20
2019-04-28T22:51:04.961Z,65.60
2019-04-28T22:53:36.598Z,65.20
2019-04-28T22:56:11.170Z,66.40
2019-04-28T22:58:45.433Z,63.20
2019-04-28T23:01:17.078Z,64.60
2019-04-28T23:03:48.734Z,68.10
2019-04-28T23:06:18.775Z,67.30
2019-04-28T23:08:48.824Z,70.70
2019-04-28T23:11:18.921Z,73.20
2019-04-28T23:13:48.771Z,73.80
2019-04-28T23:16:18.770Z,74.10
2019-04-28T23:18:48.881Z,78.00
2019-04-28T23:21:23.270Z,74.80
2019-04-28T23:23:53.170Z,76.20
2019-04-28T23:26:23.033Z,76.90
2019-04-28T23:28:52.984Z,77.70
2019-04-28T23:31:22.942Z,77.70
2019-04-28T23:33:52.801Z,74.80
2019-04-28T23:36:22.711Z,75.20
2019-04-28T23:38:52.639Z,75.20
2019-04-28T23:41:26.881Z,76.10
2019-04-28T23:43:56.813Z,74.80
2019-04-28T23:46:28.369Z,73.60
2019-04-28T23:48:58.298Z,73.00
2019-04-28T23:51:29.773Z,72.80
2019-04-28T23:54:06.997Z,73.20
2019-04-28T23:56:36.921Z,73.40
2019-04-28T23:59:06.889Z,73.40
